Time;durP1;ratioP1;P1;durP2;ratioP2;P2;SDS_P1;SDS_P2;PMS_P1;PMS_P2;Temp;Humidity;BMP_temperature;BMP_pressure;BME280_temperature;BME280_humidity;BME280_pressure;Samples;Min_cycle;Max_cycle;Signal;HPM_P1;HPM_P2
2023/08/31 00:01:53;;;;;;;18.20;5.20;;;;;;;;;;5030538;28;20049;-60
2023/08/31 00:04:19;;;;;;;15.37;5.20;;;;;;;;;;5030483;28;20050;-59
2023/08/31 00:06:46;;;;;;;14.83;5.30;;;;;;;;;;5030192;28;20095;-59
2023/08/31 00:09:13;;;;;;;15.37;5.43;;;;;;;;;;5030408;28;20038;-59
2023/08/31 00:11:39;;;;;;;10.53;5.37;;;;;;;;;;5025977;28;20053;-59
2023/08/31 00:14:05;;;;;;;9.97;4.50;;;;;;;;;;5026097;28;20057;-59
2023/08/31 00:16:33;;;;;;;15.43;5.37;;;;;;;;;;5029904;28;20144;-60
2023/08/31 00:18:59;;;;;;;12.23;5.47;;;;;;;;;;5029503;28;20049;-59
2023/08/31 00:21:25;;;;;;;12.07;5.50;;;;;;;;;;5029709;28;20077;-59
2023/08/31 00:23:51;;;;;;;13.57;4.77;;;;;;;;;;5029350;28;20042;-59
2023/08/31 00:26:17;;;;;;;13.07;5.10;;;;;;;;;;5029082;28;20056;-60
2023/08/31 00:28:44;;;;;;;12.13;5.40;;;;;;;;;;5029789;28;20045;-59
2023/08/31 00:31:10;;;;;;;14.37;4.83;;;;;;;;;;5028491;28;20083;-60
2023/08/31 00:33:36;;;;;;;10.90;5.27;;;;;;;;;;5030065;28;20132;-59
2023/08/31 00:36:03;;;;;;;9.73;4.83;;;;;;;;;;5028200;28;20557;-60
2023/08/31 00:38:29;;;;;;;14.80;5.53;;;;;;;;;;5029873;28;20049;-60
2023/08/31 00:40:55;;;;;;;17.10;5.93;;;;;;;;;;5029357;28;20057;-60
2023/08/31 00:43:21;;;;;;;12.50;5.80;;;;;;;;;;5029333;28;20082;-60
2023/08/31 00:45:49;;;;;;;11.07;6.27;;;;;;;;;;5029180;28;20495;-59
2023/08/31 00:48:16;;;;;;;10.57;5.70;;;;;;;;;;5029579;28;20040;-60
2023/08/31 00:50:43;;;;;;;14.93;5.83;;;;;;;;;;5028994;28;20060;-60
2023/08/31 00:53:09;;;;;;;11.20;4.47;;;;;;;;;;5028331;28;20053;-60
2023/08/31 00:55:35;;;;;;;13.17;5.43;;;;;;;;;;5029130;28;20447;-60
2023/08/31 00:58:01;;;;;;;10.47;5.17;;;;;;;;;;5029076;28;20049;-60
2023/08/31 01:00:33;;;;;;;10.20;4.73;;;;;;;;;;5028741;28;20061;-60
2023/08/31 01:03:04;;;;;;;10.80;4.40;;;;;;;;;;5027009;28;20118;-60
2023/08/31 01:05:34;;;;;;;6.97;4.00;;;;;;;;;;5025957;28;20045;-60
2023/08/31 01:08:08;;;;;;;12.77;4.20;;;;;;;;;;5026753;28;20128;-60
2023/08/31 01:10:34;;;;;;;;;;;;;;;;;;5027819;28;20041;-60
2023/08/31 01:13:05;;;;;;;12.90;4.70;;;;;;;;;;5028759;28;19920;-60
2023/08/31 01:15:32;;;;;;;8.57;5.17;;;;;;;;;;5026521;28;20056;-60
2023/08/31 01:17:58;;;;;;;15.33;7.40;;;;;;;;;;5028428;28;20045;-60
2023/08/31 01:20:47;;;;;;;13.13;6.80;;;;;;;;;;5028255;28;20045;-60
2023/08/31 01:23:19;;;;;;;17.43;7.53;;;;;;;;;;5019401;28;20140;-60
2023/08/31 01:25:45;;;;;;;17.50;8.50;;;;;;;;;;5028750;28;20056;-60
2023/08/31 01:28:12;;;;;;;20.50;8.90;;;;;;;;;;5026097;28;20072;-60
2023/08/31 01:30:38;;;;;;;14.40;8.33;;;;;;;;;;5028977;28;20053;-60
2023/08/31 01:33:04;;;;;;;16.30;10.07;;;;;;;;;;5028943;28;20094;-60
2023/08/31 01:35:38;;;;;;;16.50;10.23;;;;;;;;;;5028195;28;20061;-60
2023/08/31 01:38:03;;;;;;;;;;;;;;;;;;5029300;28;20077;-60
2023/08/31 01:40:44;;;;;;;14.83;9.37;;;;;;;;;;5028684;28;20078;-60
2023/08/31 01:43:11;;;;;;;18.23;10.67;;;;;;;;;;5028198;28;20049;-59
2023/08/31 01:45:37;;;;;;;15.60;8.23;;;;;;;;;;5028632;28;20073;-60
2023/08/31 01:48:03;;;;;;;13.13;8.77;;;;;;;;;;5028259;28;20045;-60
2023/08/31 01:50:29;;;;;;;16.30;9.40;;;;;;;;;;5028184;28;20072;-60
2023/08/31 01:52:55;;;;;;;16.83;8.40;;;;;;;;;;5028641;28;20187;-60
2023/08/31 01:55:22;;;;;;;14.80;8.60;;;;;;;;;;5027192;28;20041;-60
2023/08/31 01:57:48;;;;;;;15.17;8.90;;;;;;;;;;5028522;28;20045;-60
2023/08/31 02:00:15;;;;;;;12.10;7.37;;;;;;;;;;5028644;28;20492;-60
2023/08/31 02:02:41;;;;;;;15.70;9.47;;;;;;;;;;5028372;28;20057;-60
2023/08/31 02:05:07;;;;;;;15.83;8.93;;;;;;;;;;5027117;28;20122;-60
2023/08/31 02:07:33;;;;;;;14.70;8.20;;;;;;;;;;5028059;28;20045;-60
2023/08/31 02:09:59;;;;;;;15.17;6.97;;;;;;;;;;5028220;28;20049;-60
2023/08/31 02:12:25;;;;;;;13.87;7.90;;;;;;;;;;5027086;28;20056;-59
2023/08/31 02:14:51;;;;;;;10.37;6.43;;;;;;;;;;5027812;28;20140;-60
2023/08/31 02:17:17;;;;;;;11.47;7.03;;;;;;;;;;5028393;28;20049;-60
2023/08/31 02:19:43;;;;;;;16.40;7.53;;;;;;;;;;5027979;28;20471;-61
2023/08/31 02:22:09;;;;;;;13.37;7.70;;;;;;;;;;5027975;28;20074;-60
2023/08/31 02:24:35;;;;;;;13.80;8.10;;;;;;;;;;5027106;28;20463;-60
2023/08/31 02:27:01;;;;;;;14.80;7.50;;;;;;;;;;5027926;28;20045;-60
2023/08/31 02:29:27;;;;;;;10.23;6.70;;;;;;;;;;5027584;28;20084;-60
2023/08/31 02:31:54;;;;;;;12.47;6.87;;;;;;;;;;5028081;28;20485;-59
2023/08/31 02:34:20;;;;;;;13.67;7.53;;;;;;;;;;5028085;28;20412;-60
2023/08/31 02:36:46;;;;;;;13.27;9.20;;;;;;;;;;5027407;28;20110;-60
2023/08/31 02:39:13;;;;;;;12.23;8.13;;;;;;;;;;5028002;28;20057;-60
2023/08/31 02:41:39;;;;;;;14.13;9.90;;;;;;;;;;5027528;28;20065;-59
2023/08/31 02:44:05;;;;;;;16.37;10.60;;;;;;;;;;5028151;28;20444;-60
2023/08/31 02:46:31;;;;;;;14.03;8.80;;;;;;;;;;5027948;28;20041;-60
2023/08/31 02:48:57;;;;;;;12.70;9.60;;;;;;;;;;5027726;28;20081;-60
2023/08/31 02:51:23;;;;;;;12.20;9.37;;;;;;;;;;5027332;28;20045;-60
2023/08/31 02:53:50;;;;;;;14.70;9.00;;;;;;;;;;5027477;28;20046;-59
2023/08/31 02:56:16;;;;;;;11.90;8.57;;;;;;;;;;5026829;28;20049;-60
2023/08/31 02:58:42;;;;;;;9.17;7.60;;;;;;;;;;5028163;28;20060;-59
2023/08/31 03:01:11;;;;;;;11.47;8.10;;;;;;;;;;5027813;28;20050;-60
2023/08/31 03:03:40;;;;;;;12.60;8.30;;;;;;;;;;5027443;28;20046;-60
2023/08/31 03:06:10;;;;;;;12.47;8.50;;;;;;;;;;5027141;28;20132;-60
2023/08/31 03:08:36;;;;;;;10.97;7.93;;;;;;;;;;5027494;28;20050;-60
2023/08/31 03:11:03;;;;;;;12.33;8.53;;;;;;;;;;5025116;28;20042;-60
2023/08/31 03:13:29;;;;;;;13.90;8.77;;;;;;;;;;5006443;28;20496;-60
2023/08/31 03:15:56;;;;;;;16.27;9.80;;;;;;;;;;5007569;28;20120;-60
2023/08/31 03:18:22;;;;;;;12.57;8.77;;;;;;;;;;5007685;28;20057;-60
2023/08/31 03:20:48;;;;;;;14.50;9.53;;;;;;;;;;5007855;28;20046;-60
2023/08/31 03:23:14;;;;;;;11.27;8.70;;;;;;;;;;5008332;28;20504;-60
2023/08/31 03:25:41;;;;;;;13.73;10.00;;;;;;;;;;5007585;28;20046;-60
2023/08/31 03:28:07;;;;;;;14.23;10.10;;;;;;;;;;5007778;28;20046;-60
2023/08/31 03:30:33;;;;;;;15.93;11.53;;;;;;;;;;5007576;28;20504;-60
2023/08/31 03:32:59;;;;;;;11.93;9.87;;;;;;;;;;5007591;28;20050;-60
2023/08/31 03:35:28;;;;;;;18.03;11.30;;;;;;;;;;5007520;28;20417;-60
2023/08/31 03:37:55;;;;;;;13.43;11.30;;;;;;;;;;5007303;28;20164;-60
2023/08/31 03:40:22;;;;;;;16.13;11.87;;;;;;;;;;5025322;28;20064;-60
2023/08/31 03:42:48;;;;;;;13.20;10.63;;;;;;;;;;5010821;28;20054;-60
2023/08/31 03:45:14;;;;;;;11.77;10.53;;;;;;;;;;5018878;28;20052;-60
2023/08/31 03:47:40;;;;;;;13.30;11.00;;;;;;;;;;5030218;28;20050;-60
2023/08/31 03:50:06;;;;;;;13.17;11.10;;;;;;;;;;5030648;28;20132;-60
2023/08/31 03:52:32;;;;;;;13.57;10.67;;;;;;;;;;5030596;28;20138;-60
2023/08/31 03:54:58;;;;;;;13.07;10.03;;;;;;;;;;5030664;28;20073;-60
2023/08/31 03:57:24;;;;;;;13.90;9.60;;;;;;;;;;5029868;28;20154;-60
2023/08/31 03:59:50;;;;;;;12.83;9.67;;;;;;;;;;5030550;28;20049;-60
2023/08/31 04:02:16;;;;;;;11.77;9.57;;;;;;;;;;5030102;28;20045;-60
2023/08/31 04:04:42;;;;;;;15.23;8.87;;;;;;;;;;5030605;28;20053;-60
2023/08/31 04:07:08;;;;;;;11.50;7.83;;;;;;;;;;5030292;28;20046;-60
2023/08/31 04:09:34;;;;;;;9.90;7.00;;;;;;;;;;5030382;28;20049;-60
2023/08/31 04:12:00;;;;;;;10.97;8.13;;;;;;;;;;5029967;28;20042;-60
2023/08/31 04:14:27;;;;;;;13.33;7.03;;;;;;;;;;5030524;28;20088;-60
2023/08/31 04:16:53;;;;;;;9.93;6.73;;;;;;;;;;5030062;28;20053;-60
2023/08/31 04:19:19;;;;;;;8.20;5.50;;;;;;;;;;5030448;28;20041;-60
2023/08/31 04:21:45;;;;;;;11.03;6.00;;;;;;;;;;5029920;28;20104;-60
2023/08/31 04:24:11;;;;;;;9.03;5.53;;;;;;;;;;5030078;28;20480;-60
2023/08/31 04:26:37;;;;;;;10.33;5.73;;;;;;;;;;5029891;28;20052;-60
2023/08/31 04:29:05;;;;;;;8.97;6.00;;;;;;;;;;5029985;28;20041;-60
2023/08/31 04:31:31;;;;;;;8.97;6.07;;;;;;;;;;5030226;28;20110;-60
2023/08/31 04:33:57;;;;;;;13.00;7.20;;;;;;;;;;5028201;28;20042;-60
2023/08/31 04:36:23;;;;;;;10.03;6.30;;;;;;;;;;5029568;28;20052;-61
2023/08/31 04:38:50;;;;;;;10.57;6.73;;;;;;;;;;5029149;28;20085;-61
2023/08/31 04:41:16;;;;;;;11.30;6.60;;;;;;;;;;5029186;28;20057;-61
2023/08/31 04:43:42;;;;;;;11.90;7.53;;;;;;;;;;5029744;28;20056;-61
2023/08/31 04:46:08;;;;;;;14.13;7.13;;;;;;;;;;5029941;28;20049;-61
2023/08/31 04:48:34;;;;;;;11.90;7.50;;;;;;;;;;5029859;28;20057;-61
2023/08/31 04:51:00;;;;;;;10.83;7.23;;;;;;;;;;5029005;28;20510;-61
2023/08/31 04:53:26;;;;;;;13.10;7.43;;;;;;;;;;5028818;28;20046;-61
2023/08/31 04:55:52;;;;;;;12.80;8.80;;;;;;;;;;5028944;28;20041;-61
2023/08/31 04:58:18;;;;;;;15.40;9.90;;;;;;;;;;5027483;28;20049;-61
2023/08/31 05:00:44;;;;;;;15.00;10.00;;;;;;;;;;5028249;28;20052;-61
2023/08/31 05:03:10;;;;;;;12.97;9.03;;;;;;;;;;5028166;28;20045;-61
2023/08/31 05:05:36;;;;;;;13.67;8.83;;;;;;;;;;5028554;28;20069;-62
2023/08/31 05:08:03;;;;;;;19.30;11.23;;;;;;;;;;5029346;28;20178;-62
2023/08/31 05:10:29;;;;;;;16.43;11.30;;;;;;;;;;5028180;28;20049;-62
2023/08/31 05:12:55;;;;;;;15.73;10.37;;;;;;;;;;5028933;28;20041;-62
2023/08/31 05:15:22;;;;;;;17.00;10.03;;;;;;;;;;5029237;28;20534;-62
2023/08/31 05:17:48;;;;;;;15.27;9.37;;;;;;;;;;5028866;28;20053;-61
2023/08/31 05:20:14;;;;;;;13.87;9.50;;;;;;;;;;5027278;28;20435;-62
2023/08/31 05:22:40;;;;;;;14.40;9.83;;;;;;;;;;5029201;28;20183;-62
2023/08/31 05:25:06;;;;;;;13.20;10.47;;;;;;;;;;5028929;28;20410;-61
2023/08/31 05:27:32;;;;;;;14.73;9.93;;;;;;;;;;5028988;28;20107;-62
2023/08/31 05:29:58;;;;;;;20.20;11.53;;;;;;;;;;5027834;28;20450;-61
2023/08/31 05:32:24;;;;;;;15.30;10.87;;;;;;;;;;5028650;28;20038;-62
2023/08/31 05:34:50;;;;;;;18.27;12.17;;;;;;;;;;5028753;28;20194;-62
2023/08/31 05:37:16;;;;;;;14.63;10.50;;;;;;;;;;5028900;28;20048;-63
2023/08/31 05:39:42;;;;;;;19.73;10.10;;;;;;;;;;5028422;28;20089;-61
2023/08/31 05:42:08;;;;;;;14.83;9.87;;;;;;;;;;5028685;28;20393;-62
2023/08/31 05:44:34;;;;;;;15.50;8.90;;;;;;;;;;5027787;28;20072;-62
2023/08/31 05:47:00;;;;;;;19.90;10.57;;;;;;;;;;5028334;28;20072;-62
2023/08/31 05:49:26;;;;;;;12.27;8.77;;;;;;;;;;5028417;28;20522;-62
2023/08/31 05:51:52;;;;;;;16.47;10.57;;;;;;;;;;5026548;28;20090;-62
2023/08/31 05:54:18;;;;;;;12.20;7.83;;;;;;;;;;5028225;28;20051;-62
2023/08/31 05:56:44;;;;;;;14.90;8.67;;;;;;;;;;5027707;28;20052;-62
2023/08/31 05:59:10;;;;;;;14.17;8.63;;;;;;;;;;5028283;28;20065;-62
2023/08/31 06:01:36;;;;;;;13.83;9.03;;;;;;;;;;5028084;28;20053;-62
2023/08/31 06:04:03;;;;;;;15.87;8.50;;;;;;;;;;5028054;28;20053;-62
2023/08/31 06:06:29;;;;;;;15.53;8.33;;;;;;;;;;5027603;28;20128;-62
2023/08/31 06:08:56;;;;;;;12.23;7.90;;;;;;;;;;5027281;28;20109;-62
2023/08/31 06:11:22;;;;;;;16.20;8.40;;;;;;;;;;5027021;28;20598;-62
2023/08/31 06:13:48;;;;;;;11.27;7.43;;;;;;;;;;5028161;28;20049;-62
2023/08/31 06:16:14;;;;;;;16.23;8.73;;;;;;;;;;5027410;28;20151;-62
2023/08/31 06:18:40;;;;;;;13.07;8.17;;;;;;;;;;5027805;28;20480;-62
2023/08/31 06:21:06;;;;;;;11.87;7.07;;;;;;;;;;5027881;28;20140;-62
2023/08/31 06:23:32;;;;;;;9.90;7.37;;;;;;;;;;5027673;28;20141;-62
2023/08/31 06:25:58;;;;;;;9.80;6.97;;;;;;;;;;5027839;28;20468;-62
2023/08/31 06:28:25;;;;;;;13.73;5.87;;;;;;;;;;5027182;28;20033;-62
2023/08/31 06:30:51;;;;;;;12.37;6.43;;;;;;;;;;5027470;28;20174;-62
2023/08/31 06:33:18;;;;;;;13.43;6.00;;;;;;;;;;5027555;28;20049;-62
2023/08/31 06:35:48;;;;;;;13.30;5.67;;;;;;;;;;5027901;28;20060;-62
2023/08/31 06:38:14;;;;;;;11.23;5.57;;;;;;;;;;5027692;28;20054;-62
2023/08/31 06:40:43;;;;;;;8.63;5.00;;;;;;;;;;5027296;28;20144;-62
2023/08/31 06:43:09;;;;;;;9.80;4.60;;;;;;;;;;5027869;28;20098;-62
2023/08/31 06:45:35;;;;;;;12.57;4.77;;;;;;;;;;5026102;28;20042;-62
2023/08/31 06:48:01;;;;;;;10.27;4.07;;;;;;;;;;5026089;28;21156;-62
2023/08/31 06:50:27;;;;;;;13.13;4.80;;;;;;;;;;5059748;28;20056;-62
2023/08/31 06:52:53;;;;;;;9.17;4.10;;;;;;;;;;5027288;28;20041;-62
2023/08/31 06:55:19;;;;;;;11.20;4.70;;;;;;;;;;5027396;28;20168;-62
2023/08/31 06:57:45;;;;;;;7.90;3.60;;;;;;;;;;5027260;28;20491;-62
2023/08/31 07:00:12;;;;;;;8.63;3.27;;;;;;;;;;5026367;28;20639;-63
2023/08/31 07:02:41;;;;;;;9.50;3.23;;;;;;;;;;5027573;28;20054;-63
2023/08/31 07:05:07;;;;;;;6.53;3.33;;;;;;;;;;5026490;28;20195;-62
2023/08/31 07:07:33;;;;;;;6.97;2.83;;;;;;;;;;5027455;28;20054;-62
2023/08/31 07:09:59;;;;;;;7.30;2.70;;;;;;;;;;5026966;28;20044;-62
2023/08/31 07:12:25;;;;;;;6.83;3.10;;;;;;;;;;5027557;28;20139;-63
2023/08/31 07:14:51;;;;;;;7.33;2.77;;;;;;;;;;5028848;28;20424;-62
2023/08/31 07:17:20;;;;;;;6.13;2.87;;;;;;;;;;5031329;28;20049;-62
2023/08/31 07:19:46;;;;;;;8.10;3.57;;;;;;;;;;5029604;28;20049;-62
2023/08/31 07:22:12;;;;;;;8.77;2.97;;;;;;;;;;5031179;28;20092;-62
2023/08/31 07:24:38;;;;;;;7.17;2.90;;;;;;;;;;5030549;28;20504;-62
2023/08/31 07:27:05;;;;;;;5.97;2.60;;;;;;;;;;5030931;28;20080;-62
2023/08/31 07:29:31;;;;;;;7.70;2.37;;;;;;;;;;5030683;28;20064;-62
2023/08/31 07:31:57;;;;;;;7.53;2.60;;;;;;;;;;5029792;28;20120;-62
2023/08/31 07:34:24;;;;;;;8.17;3.20;;;;;;;;;;5030266;28;20125;-62
2023/08/31 07:36:50;;;;;;;7.47;2.40;;;;;;;;;;5030836;28;20049;-62
2023/08/31 07:39:19;;;;;;;7.63;2.40;;;;;;;;;;5029848;28;20118;-62
2023/08/31 07:41:45;;;;;;;5.07;2.00;;;;;;;;;;5030789;28;20049;-62
2023/08/31 07:44:11;;;;;;;7.17;2.00;;;;;;;;;;5031257;28;20052;-62
2023/08/31 07:46:37;;;;;;;5.23;1.30;;;;;;;;;;5030206;28;20048;-62
2023/08/31 07:49:04;;;;;;;6.23;2.07;;;;;;;;;;5029673;28;20418;-62
2023/08/31 07:51:30;;;;;;;6.53;2.37;;;;;;;;;;5028740;28;20081;-62
2023/08/31 07:53:56;;;;;;;5.10;1.30;;;;;;;;;;5030626;28;20044;-62
2023/08/31 07:56:23;;;;;;;3.90;1.10;;;;;;;;;;5030405;28;20049;-61
2023/08/31 07:58:50;;;;;;;5.43;1.17;;;;;;;;;;5029645;28;20491;-62
2023/08/31 08:01:16;;;;;;;3.87;1.33;;;;;;;;;;5028926;28;20049;-61
2023/08/31 08:03:42;;;;;;;5.60;1.80;;;;;;;;;;5030308;28;20709;-62
2023/08/31 08:06:08;;;;;;;7.20;1.17;;;;;;;;;;5029930;28;20095;-62
2023/08/31 08:08:37;;;;;;;4.37;1.00;;;;;;;;;;5029206;28;20043;-61
2023/08/31 08:11:04;;;;;;;4.13;0.90;;;;;;;;;;5029500;28;20581;-62
2023/08/31 08:13:30;;;;;;;4.57;1.00;;;;;;;;;;5028298;28;20042;-61
2023/08/31 08:15:56;;;;;;;4.93;1.20;;;;;;;;;;5028829;28;20037;-61
2023/08/31 08:18:22;;;;;;;5.53;1.30;;;;;;;;;;5025993;28;20046;-62
2023/08/31 08:20:49;;;;;;;2.77;0.83;;;;;;;;;;5029756;28;20046;-62
2023/08/31 08:23:15;;;;;;;4.07;0.80;;;;;;;;;;5028697;28;20045;-60
2023/08/31 08:25:41;;;;;;;2.17;0.67;;;;;;;;;;5025859;28;21536;-60
2023/08/31 08:28:07;;;;;;;3.17;0.80;;;;;;;;;;5026345;28;20045;-60
2023/08/31 08:30:33;;;;;;;5.20;0.60;;;;;;;;;;5029802;28;20045;-59
2023/08/31 08:32:59;;;;;;;5.17;1.10;;;;;;;;;;5029892;28;20042;-60
2023/08/31 08:35:25;;;;;;;4.13;0.77;;;;;;;;;;5028859;28;20537;-60
2023/08/31 08:37:53;;;;;;;3.20;0.73;;;;;;;;;;5025364;28;20037;-61
2023/08/31 08:40:19;;;;;;;2.90;1.10;;;;;;;;;;5030027;28;20400;-61
2023/08/31 08:42:47;;;;;;;7.67;2.00;;;;;;;;;;5029611;28;20080;-61
2023/08/31 08:45:17;;;;;;;3.97;0.80;;;;;;;;;;5027961;28;20037;-61
2023/08/31 08:47:44;;;;;;;14.10;1.20;;;;;;;;;;5024282;28;20051;-61
2023/08/31 08:50:11;;;;;;;6.27;0.90;;;;;;;;;;5026892;28;20045;-62
2023/08/31 08:52:37;;;;;;;3.37;1.10;;;;;;;;;;5025346;28;20039;-61
2023/08/31 08:55:03;;;;;;;2.23;0.80;;;;;;;;;;5025143;28;20041;-61
2023/08/31 08:57:29;;;;;;;5.90;1.10;;;;;;;;;;5029530;28;20557;-61
2023/08/31 08:59:55;;;;;;;3.83;1.20;;;;;;;;;;5026856;28;20037;-61
2023/08/31 09:02:22;;;;;;;4.97;0.80;;;;;;;;;;5029571;28;20124;-61
2023/08/31 09:04:47;;;;;;;6.10;1.50;;;;;;;;;;5028507;28;20132;-61
2023/08/31 09:07:14;;;;;;;4.30;0.70;;;;;;;;;;5026382;28;20120;-61
2023/08/31 09:09:51;;;;;;;2.97;0.90;;;;;;;;;;5027308;28;20099;-61
2023/08/31 09:12:17;;;;;;;6.83;1.30;;;;;;;;;;5026781;28;20057;-61
2023/08/31 09:14:43;;;;;;;3.23;0.90;;;;;;;;;;5024909;28;20065;-61
2023/08/31 09:17:09;;;;;;;3.33;1.00;;;;;;;;;;5024912;28;20057;-61
2023/08/31 09:19:35;;;;;;;5.87;0.97;;;;;;;;;;5023965;28;20072;-61
2023/08/31 09:22:01;;;;;;;5.07;1.40;;;;;;;;;;5025811;28;20037;-60
2023/08/31 09:24:40;;;;;;;3.10;0.90;;;;;;;;;;5027103;28;20045;-61
2023/08/31 09:27:06;;;;;;;6.57;1.20;;;;;;;;;;5027989;28;20045;-61
2023/08/31 09:29:32;;;;;;;3.27;1.00;;;;;;;;;;5028487;28;20045;-61
2023/08/31 09:31:58;;;;;;;8.43;1.70;;;;;;;;;;5029320;28;20046;-61
2023/08/31 09:34:33;;;;;;;4.20;1.10;;;;;;;;;;5028545;28;20103;-62
2023/08/31 09:37:04;;;;;;;4.13;0.77;;;;;;;;;;5041287;28;20051;-61
2023/08/31 09:39:35;;;;;;;5.67;1.03;;;;;;;;;;5038686;28;20503;-61
2023/08/31 09:42:03;;;;;;;4.40;0.87;;;;;;;;;;5030200;28;20049;-61
2023/08/31 09:44:29;;;;;;;5.93;0.90;;;;;;;;;;5048943;28;20044;-61
2023/08/31 09:46:55;;;;;;;7.03;1.00;;;;;;;;;;5047067;28;20518;-61
2023/08/31 09:49:25;;;;;;;2.77;0.63;;;;;;;;;;5035514;28;20442;-61
2023/08/31 09:51:51;;;;;;;3.20;0.87;;;;;;;;;;5034591;28;20503;-61
2023/08/31 09:54:18;;;;;;;5.00;1.17;;;;;;;;;;5046007;28;20179;-60
2023/08/31 09:56:45;;;;;;;2.90;0.70;;;;;;;;;;5027907;28;20034;-60
2023/08/31 09:59:12;;;;;;;2.10;0.73;;;;;;;;;;5027591;28;20068;-60
2023/08/31 10:01:38;;;;;;;5.43;0.80;;;;;;;;;;5027141;28;20120;-60
2023/08/31 10:04:06;;;;;;;3.67;1.43;;;;;;;;;;5032080;28;20103;-60
2023/08/31 10:06:32;;;;;;;4.27;1.03;;;;;;;;;;5048523;28;20135;-59
2023/08/31 10:08:59;;;;;;;6.07;0.90;;;;;;;;;;5045815;28;20048;-59
2023/08/31 10:11:28;;;;;;;3.77;0.90;;;;;;;;;;5036079;28;20048;-60
2023/08/31 10:13:55;;;;;;;4.10;1.60;;;;;;;;;;5026613;28;20140;-60
2023/08/31 10:16:22;;;;;;;4.53;0.80;;;;;;;;;;5026375;28;20041;-59
2023/08/31 10:18:49;;;;;;;59.37;4.60;;;;;;;;;;5024246;28;20037;-61
2023/08/31 10:21:18;;;;;;;6.87;1.40;;;;;;;;;;5028895;28;20171;-60
2023/08/31 10:23:48;;;;;;;5.70;2.00;;;;;;;;;;5037521;28;20052;-60
2023/08/31 10:26:23;;;;;;;9.27;2.40;;;;;;;;;;5029900;28;20499;-60
2023/08/31 10:28:49;;;;;;;3.40;1.50;;;;;;;;;;5026030;28;20041;-60
2023/08/31 10:31:19;;;;;;;11.03;1.73;;;;;;;;;;5026553;28;20403;-60
2023/08/31 10:33:57;;;;;;;5.37;1.67;;;;;;;;;;5028135;28;20124;-61
2023/08/31 10:36:35;;;;;;;7.43;1.53;;;;;;;;;;5027958;28;20053;-61
2023/08/31 10:39:02;;;;;;;5.93;1.50;;;;;;;;;;5027656;28;20048;-61
2023/08/31 10:41:37;;;;;;;4.00;1.20;;;;;;;;;;5027222;28;20053;-61
2023/08/31 10:44:18;;;;;;;5.73;1.30;;;;;;;;;;5028000;28;20046;-61
2023/08/31 10:46:44;;;;;;;13.87;1.60;;;;;;;;;;5027076;28;20530;-61
2023/08/31 10:49:10;;;;;;;5.77;1.50;;;;;;;;;;5027546;28;20135;-61
2023/08/31 10:51:36;;;;;;;6.77;1.50;;;;;;;;;;5031610;28;20073;-61
2023/08/31 10:54:05;;;;;;;8.63;1.40;;;;;;;;;;5031868;28;20048;-61
2023/08/31 10:56:31;;;;;;;3.27;1.07;;;;;;;;;;5031922;28;20462;-62
2023/08/31 10:58:58;;;;;;;12.90;2.33;;;;;;;;;;5031211;28;20060;-62
2023/08/31 11:01:43;;;;;;;3.17;1.20;;;;;;;;;;5030221;28;20518;-62
2023/08/31 11:04:12;;;;;;;9.10;1.90;;;;;;;;;;5028754;28;20053;-62
2023/08/31 11:06:38;;;;;;;7.57;1.30;;;;;;;;;;5019655;28;20049;-62
2023/08/31 11:09:05;;;;;;;6.37;1.40;;;;;;;;;;5030143;28;20045;-62
2023/08/31 11:11:38;;;;;;;9.97;1.30;;;;;;;;;;5031205;28;20044;-62
2023/08/31 11:14:04;;;;;;;6.83;1.33;;;;;;;;;;5031814;28;20457;-62
2023/08/31 11:16:31;;;;;;;3.13;0.93;;;;;;;;;;5031650;28;20063;-62
2023/08/31 11:18:57;;;;;;;5.03;1.13;;;;;;;;;;5029795;28;20157;-62
2023/08/31 11:21:23;;;;;;;8.87;1.03;;;;;;;;;;5031016;28;20046;-62
2023/08/31 11:23:49;;;;;;;8.17;1.20;;;;;;;;;;5029211;28;20566;-62
2023/08/31 11:26:15;;;;;;;4.67;1.03;;;;;;;;;;5030897;28;20867;-62
2023/08/31 11:28:46;;;;;;;10.47;1.00;;;;;;;;;;5031264;28;20090;-62
2023/08/31 11:31:12;;;;;;;4.87;1.17;;;;;;;;;;5031390;28;20491;-62
2023/08/31 11:33:38;;;;;;;3.67;0.93;;;;;;;;;;5031288;28;20044;-62
2023/08/31 11:36:04;;;;;;;3.93;0.87;;;;;;;;;;5031467;28;20041;-62
2023/08/31 11:38:30;;;;;;;3.90;0.80;;;;;;;;;;5031331;28;20053;-63
2023/08/31 11:40:57;;;;;;;4.47;0.70;;;;;;;;;;5030243;28;20108;-62
2023/08/31 11:43:23;;;;;;;2.20;0.53;;;;;;;;;;5027774;28;20065;-62
2023/08/31 11:45:50;;;;;;;3.50;0.70;;;;;;;;;;5021624;28;20502;-62
2023/08/31 11:48:16;;;;;;;3.60;0.83;;;;;;;;;;5030381;28;20107;-62
2023/08/31 11:50:42;;;;;;;2.87;1.00;;;;;;;;;;5030033;28;20330;-62
2023/08/31 11:53:08;;;;;;;3.03;0.90;;;;;;;;;;5030855;28;20168;-62
2023/08/31 11:55:34;;;;;;;4.23;0.80;;;;;;;;;;5031158;28;20132;-62
2023/08/31 11:58:00;;;;;;;2.67;0.97;;;;;;;;;;5029211;28;20456;-62
2023/08/31 12:00:26;;;;;;;2.30;0.50;;;;;;;;;;5028340;28;20041;-62
2023/08/31 12:02:59;;;;;;;2.70;0.60;;;;;;;;;;5031052;28;20056;-62
2023/08/31 12:05:26;;;;;;;1.98;0.57;;;;;;;;;;5022510;28;20050;-62
2023/08/31 12:07:54;;;;;;;3.37;0.67;;;;;;;;;;5011078;28;20050;-62
2023/08/31 12:10:20;;;;;;;3.47;0.83;;;;;;;;;;5019912;28;20049;-62
2023/08/31 12:12:46;;;;;;;3.93;1.00;;;;;;;;;;5029709;28;20076;-62
2023/08/31 12:15:12;;;;;;;4.63;1.13;;;;;;;;;;5030269;28;20038;-62
2023/08/31 12:17:50;;;;;;;4.53;0.90;;;;;;;;;;5030110;28;20431;-62
2023/08/31 12:20:16;;;;;;;6.60;0.83;;;;;;;;;;5030164;28;20175;-62
2023/08/31 12:22:42;;;;;;;5.40;1.37;;;;;;;;;;5029772;28;20507;-62
2023/08/31 12:25:11;;;;;;;2.03;0.77;;;;;;;;;;5029990;28;20056;-62
2023/08/31 12:27:58;;;;;;;8.37;1.40;;;;;;;;;;5028704;28;20059;-62
2023/08/31 12:30:28;;;;;;;3.17;0.90;;;;;;;;;;5028562;28;20042;-62
2023/08/31 12:32:54;;;;;;;3.13;0.80;;;;;;;;;;5029814;28;20381;-62
2023/08/31 12:35:21;;;;;;;4.83;0.97;;;;;;;;;;5029659;28;20045;-62
2023/08/31 12:37:47;;;;;;;3.10;0.90;;;;;;;;;;5029806;28;20049;-62
2023/08/31 12:40:13;;;;;;;3.93;1.10;;;;;;;;;;5029885;28;20099;-62
2023/08/31 12:42:39;;;;;;;5.70;0.90;;;;;;;;;;5029598;28;20152;-62
2023/08/31 12:45:05;;;;;;;6.37;1.37;;;;;;;;;;5029623;28;20054;-62
2023/08/31 12:47:32;;;;;;;4.13;0.63;;;;;;;;;;5029222;28;20073;-62
2023/08/31 12:49:58;;;;;;;4.60;0.67;;;;;;;;;;5027778;28;20049;-62
2023/08/31 12:52:24;;;;;;;5.73;1.40;;;;;;;;;;5029914;28;21158;-62
2023/08/31 12:54:50;;;;;;;4.13;0.83;;;;;;;;;;5029289;28;20077;-62
2023/08/31 12:57:16;;;;;;;3.57;1.00;;;;;;;;;;5029125;28;20480;-62
2023/08/31 12:59:42;;;;;;;3.97;0.80;;;;;;;;;;5029487;28;20053;-62
2023/08/31 13:02:10;;;;;;;4.00;1.17;;;;;;;;;;5029320;28;20049;-60
2023/08/31 13:04:36;;;;;;;4.57;1.03;;;;;;;;;;5029120;28;20049;-59
2023/08/31 13:07:03;;;;;;;2.97;0.80;;;;;;;;;;5029475;28;20041;-59
2023/08/31 13:09:29;;;;;;;4.93;1.10;;;;;;;;;;5029182;28;20051;-59
2023/08/31 13:11:55;;;;;;;2.33;0.80;;;;;;;;;;5028198;28;20092;-59
2023/08/31 13:14:21;;;;;;;2.40;0.67;;;;;;;;;;5027052;28;20064;-59
2023/08/31 13:16:47;;;;;;;3.23;1.10;;;;;;;;;;5029085;28;20056;-59
2023/08/31 13:19:13;;;;;;;2.37;0.93;;;;;;;;;;5028876;28;20046;-59
2023/08/31 13:21:39;;;;;;;3.37;0.80;;;;;;;;;;5028945;28;20080;-59
2023/08/31 13:24:05;;;;;;;4.40;1.10;;;;;;;;;;5028631;28;20073;-59
2023/08/31 13:26:31;;;;;;;4.33;1.10;;;;;;;;;;5027935;28;20046;-59
2023/08/31 13:28:57;;;;;;;3.57;1.00;;;;;;;;;;5027250;28;20049;-59
2023/08/31 13:31:23;;;;;;;4.37;1.37;;;;;;;;;;5027552;28;20459;-59
2023/08/31 13:33:49;;;;;;;6.77;1.30;;;;;;;;;;5026230;28;20539;-59
2023/08/31 13:36:15;;;;;;;3.93;0.90;;;;;;;;;;5027746;28;20558;-58
2023/08/31 13:38:41;;;;;;;4.27;1.40;;;;;;;;;;5028359;28;20045;-59
2023/08/31 13:41:08;;;;;;;5.17;1.23;;;;;;;;;;5026372;28;20068;-58
2023/08/31 13:43:34;;;;;;;6.50;1.07;;;;;;;;;;5027487;28;20061;-58
2023/08/31 13:46:00;;;;;;;5.60;1.10;;;;;;;;;;5028307;28;20467;-58
2023/08/31 13:48:26;;;;;;;6.80;1.23;;;;;;;;;;5027438;28;20764;-58
2023/08/31 13:50:52;;;;;;;6.70;1.20;;;;;;;;;;5025787;28;20369;-58
2023/08/31 13:53:18;;;;;;;5.23;1.20;;;;;;;;;;5027511;28;20061;-58
2023/08/31 13:55:45;;;;;;;3.13;0.80;;;;;;;;;;5028407;28;20033;-58
2023/08/31 13:58:11;;;;;;;3.70;1.03;;;;;;;;;;5027744;28;20061;-58
2023/08/31 14:00:37;;;;;;;7.63;1.07;;;;;;;;;;5026440;28;20049;-58
2023/08/31 14:03:04;;;;;;;5.83;1.10;;;;;;;;;;5022023;28;20045;-57
2023/08/31 14:05:31;;;;;;;4.93;1.20;;;;;;;;;;5008030;28;20447;-58
2023/08/31 14:07:57;;;;;;;4.67;0.90;;;;;;;;;;5012323;28;20042;-58
2023/08/31 14:10:24;;;;;;;5.23;1.20;;;;;;;;;;5027812;28;20167;-58
2023/08/31 14:12:50;;;;;;;3.37;1.00;;;;;;;;;;5028109;28;20041;-58
2023/08/31 14:15:16;;;;;;;4.50;1.27;;;;;;;;;;5027704;28;20103;-58
2023/08/31 14:17:42;;;;;;;3.87;1.10;;;;;;;;;;5028256;28;20042;-60
2023/08/31 14:20:09;;;;;;;5.00;1.60;;;;;;;;;;5027484;28;20053;-58
2023/08/31 14:22:36;;;;;;;5.53;1.10;;;;;;;;;;5027734;28;20053;-59
2023/08/31 14:25:03;;;;;;;7.17;1.67;;;;;;;;;;5027643;28;20049;-59
2023/08/31 14:27:30;;;;;;;4.07;1.17;;;;;;;;;;5059963;28;20483;-59
2023/08/31 14:29:57;;;;;;;5.13;1.23;;;;;;;;;;5026423;28;20047;-59
2023/08/31 14:32:23;;;;;;;4.83;1.10;;;;;;;;;;5027809;28;20053;-59
2023/08/31 14:34:49;;;;;;;4.47;1.13;;;;;;;;;;5027048;28;20076;-59